createdAt,value
2018-09-21T00:00:29.398Z,64.86
2018-09-21T00:01:29.401Z,65.24
2018-09-21T00:02:29.394Z,65.14
2018-09-21T00:03:29.390Z,65.33
2018-09-21T00:04:29.388Z,65.24
2018-09-21T00:05:29.379Z,64.95
2018-09-21T00:06:29.378Z,65.24
2018-09-21T00:07:29.372Z,65.91
2018-09-21T00:08:29.371Z,65.53
2018-09-21T00:09:29.372Z,65.63
2018-09-21T00:10:29.365Z,65.63
2018-09-21T00:11:29.363Z,65.72
2018-09-21T00:12:29.359Z,65.43
2018-09-21T00:13:29.359Z,65.53
2018-09-21T00:14:29.354Z,65.53
2018-09-21T00:15:29.344Z,65.63
2018-09-21T00:16:29.344Z,65.53
2018-09-21T00:17:29.344Z,65.43
2018-09-21T00:18:29.338Z,66.27
2018-09-21T00:19:29.333Z,65.97
2018-09-21T00:20:29.324Z,65.81
2018-09-21T00:21:29.322Z,65.97
2018-09-21T00:22:29.318Z,65.88
2018-09-21T00:23:29.318Z,66.20
2018-09-21T00:24:29.312Z,66.39
2018-09-21T00:25:29.309Z,66.55
2018-09-21T00:26:29.306Z,65.97
2018-09-21T00:27:29.299Z,66.27
2018-09-21T00:28:29.298Z,66.55
2018-09-21T00:29:29.292Z,66.27
2018-09-21T00:30:29.294Z,66.17
2018-09-21T00:31:29.289Z,66.46
2018-09-21T00:32:29.280Z,66.55
2018-09-21T00:33:29.278Z,66.36
2018-09-21T00:34:29.274Z,66.65
2018-09-21T00:35:29.271Z,66.65
2018-09-21T00:36:29.270Z,66.84
2018-09-21T00:37:29.271Z,67.22
2018-09-21T00:38:29.262Z,67.32
2018-09-21T00:39:29.254Z,67.03
2018-09-21T00:40:29.256Z,67.03
2018-09-21T00:41:29.247Z,67.32
2018-09-21T00:42:29.245Z,66.94
2018-09-21T00:43:29.239Z,66.74
2018-09-21T00:44:29.239Z,67.61
2018-09-21T00:45:29.234Z,66.84
2018-09-21T00:46:29.232Z,67.51
2018-09-21T00:47:29.227Z,67.32
2018-09-21T00:48:29.220Z,67.51
2018-09-21T00:49:29.218Z,67.61
2018-09-21T00:50:29.211Z,67.32
2018-09-21T00:51:29.218Z,67.51
2018-09-21T00:52:29.208Z,67.71
2018-09-21T00:53:29.199Z,67.71
2018-09-21T00:54:29.198Z,68.09
2018-09-21T00:55:29.189Z,67.90
2018-09-21T00:56:29.193Z,67.80
2018-09-21T00:57:29.197Z,67.80
2018-09-21T00:58:29.183Z,67.99
2018-09-21T00:59:29.178Z,67.61
2018-09-21T01:00:29.173Z,67.71
2018-09-21T01:01:29.173Z,67.80
2018-09-21T01:02:29.166Z,68.09
2018-09-21T01:03:29.159Z,67.71
2018-09-21T01:04:29.158Z,67.71
2018-09-21T01:05:29.154Z,68.19
2018-09-21T01:06:29.148Z,68.29
2018-09-21T01:07:29.152Z,68.29
2018-09-21T01:08:29.142Z,68.29
2018-09-21T01:09:29.199Z,68.76
2018-09-21T01:10:29.139Z,68.57
2018-09-21T01:11:29.133Z,68.57
2018-09-21T01:12:29.130Z,68.76
2018-09-21T01:13:29.127Z,68.38
2018-09-21T01:14:29.130Z,68.86
2018-09-21T01:15:29.122Z,69.15
2018-09-21T01:16:29.112Z,68.83
2018-09-21T01:17:29.106Z,68.96
2018-09-21T01:18:29.105Z,69.40
2018-09-21T01:19:29.099Z,69.60
2018-09-21T01:20:29.107Z,69.50
2018-09-21T01:21:29.103Z,68.92
2018-09-21T01:22:29.090Z,69.60
2018-09-21T01:23:29.088Z,69.50
2018-09-21T01:24:29.078Z,69.69
2018-09-21T01:25:29.077Z,69.89
2018-09-21T01:26:29.078Z,70.17
2018-09-21T01:27:29.065Z,70.17
2018-09-21T01:28:29.067Z,70.17
2018-09-21T01:29:29.060Z,70.56
2018-09-21T01:30:29.060Z,70.27
2018-09-21T01:31:29.051Z,70.46
2018-09-21T01:32:29.047Z,70.27
2018-09-21T01:33:29.054Z,70.65
2018-09-21T01:34:29.047Z,70.27
2018-09-21T01:35:29.038Z,70.65
2018-09-21T01:36:29.029Z,70.94
2018-09-21T01:37:29.028Z,70.65
2018-09-21T01:38:29.023Z,70.56
2018-09-21T01:39:29.019Z,70.56
2018-09-21T01:40:29.019Z,71.33
2018-09-21T01:41:29.015Z,71.23
2018-09-21T01:42:29.012Z,71.14
2018-09-21T01:43:29.009Z,71.23
2018-09-21T01:44:29.003Z,71.14
2018-09-21T01:45:28.999Z,71.04
2018-09-21T01:46:28.993Z,71.52
2018-09-21T01:47:28.986Z,71.71
2018-09-21T01:48:28.983Z,71.52
2018-09-21T01:49:28.994Z,71.23
2018-09-21T01:50:28.994Z,71.42
2018-09-21T01:51:28.974Z,71.91
2018-09-21T01:52:28.968Z,71.42
2018-09-21T01:53:28.964Z,71.71
2018-09-21T01:54:28.965Z,71.61
2018-09-21T01:55:28.953Z,72.19
2018-09-21T01:56:28.952Z,72.00
2018-09-21T01:57:28.951Z,71.91
2018-09-21T01:58:28.944Z,72.19
2018-09-21T01:59:28.943Z,72.19
2018-09-21T02:00:28.936Z,72.38
2018-09-21T02:01:28.931Z,72.09
2018-09-21T02:02:28.929Z,72.00
2018-09-21T02:03:28.924Z,73.06
2018-09-21T02:04:28.925Z,73.06
2018-09-21T02:05:28.920Z,72.38
2018-09-21T02:06:28.917Z,73.06
2018-09-21T02:07:28.905Z,73.15
2018-09-21T02:08:28.904Z,72.96
2018-09-21T02:09:28.914Z,73.35
2018-09-21T02:10:28.900Z,72.96
2018-09-21T02:11:28.903Z,73.54
2018-09-21T02:12:28.892Z,74.11
2018-09-21T02:13:28.888Z,73.73
2018-09-21T02:14:28.879Z,73.44
2018-09-21T02:15:28.872Z,73.54
2018-09-21T02:16:28.873Z,74.11
2018-09-21T02:17:28.885Z,73.35
2018-09-21T02:18:28.865Z,73.44
2018-09-21T02:19:28.869Z,74.40
2018-09-21T02:20:28.886Z,74.30
2018-09-21T02:21:28.850Z,74.11
2018-09-21T02:22:28.844Z,74.11
2018-09-21T02:23:28.843Z,74.02
2018-09-21T02:24:28.840Z,74.11
2018-09-21T02:25:28.833Z,74.30
2018-09-21T02:26:28.836Z,74.02
2018-09-21T02:27:28.825Z,74.30
2018-09-21T02:28:28.824Z,74.88
2018-09-21T02:29:28.820Z,74.21
2018-09-21T02:30:28.814Z,74.69
2018-09-21T02:31:28.819Z,74.50
2018-09-21T02:32:28.809Z,74.50
2018-09-21T02:33:28.811Z,74.40
2018-09-21T02:34:28.799Z,74.98
2018-09-21T02:35:28.792Z,74.30
2018-09-21T02:36:28.792Z,74.88
2018-09-21T02:37:28.786Z,74.69
2018-09-21T02:38:28.779Z,74.50
2018-09-21T02:39:28.779Z,74.79
2018-09-21T02:40:28.771Z,75.17
2018-09-21T02:41:28.865Z,75.17
2018-09-21T02:42:28.769Z,74.98
2018-09-21T02:43:28.763Z,74.98
2018-09-21T02:44:28.761Z,75.07
2018-09-21T02:45:28.756Z,75.07
2018-09-21T02:46:28.759Z,75.27
2018-09-21T02:47:28.745Z,75.37
2018-09-21T02:48:28.743Z,75.56
2018-09-21T02:49:28.737Z,74.98
2018-09-21T02:50:28.734Z,75.07
2018-09-21T02:51:28.731Z,74.98
2018-09-21T02:52:28.721Z,74.79
2018-09-21T02:53:28.722Z,74.98
2018-09-21T02:54:28.715Z,75.27
2018-09-21T02:55:28.715Z,75.27
2018-09-21T02:56:28.706Z,75.56
2018-09-21T02:57:28.702Z,75.37
2018-09-21T02:58:28.705Z,75.46
2018-09-21T02:59:28.694Z,75.27
2018-09-21T03:00:28.770Z,75.46
2018-09-21T03:01:28.687Z,75.46
2018-09-21T03:02:28.684Z,75.75
2018-09-21T03:03:28.682Z,75.46
2018-09-21T03:04:28.673Z,75.27
2018-09-21T03:05:28.679Z,75.56
2018-09-21T03:06:28.670Z,75.56
2018-09-21T03:07:28.666Z,75.46
2018-09-21T03:08:28.664Z,75.65
2018-09-21T03:09:28.657Z,75.84
2018-09-21T03:10:28.654Z,76.14
2018-09-21T03:11:28.644Z,75.65
2018-09-21T03:12:28.639Z,75.37
2018-09-21T03:13:28.635Z,75.75
2018-09-21T03:14:28.634Z,75.75
2018-09-21T03:15:28.630Z,75.94
2018-09-21T03:16:28.624Z,76.32
2018-09-21T03:17:28.623Z,76.23
2018-09-21T03:18:28.621Z,75.84
2018-09-21T03:19:28.619Z,75.94
2018-09-21T03:20:28.606Z,75.65
2018-09-21T03:21:28.609Z,75.84
2018-09-21T03:22:28.614Z,75.56
2018-09-21T03:23:28.612Z,76.14
2018-09-21T03:24:28.597Z,76.04
2018-09-21T03:25:28.596Z,76.32
2018-09-21T03:26:28.590Z,76.14
2018-09-21T03:27:28.580Z,75.75
2018-09-21T03:28:28.576Z,76.23
2018-09-21T03:29:28.580Z,75.75
2018-09-21T03:30:28.574Z,75.75
2018-09-21T03:31:28.563Z,76.14
2018-09-21T03:32:28.566Z,75.94
2018-09-21T03:33:28.565Z,75.46
2018-09-21T03:34:28.553Z,76.14
2018-09-21T03:35:28.549Z,75.37
2018-09-21T03:36:28.565Z,75.75
2018-09-21T03:37:28.548Z,76.32
2018-09-21T03:38:28.545Z,75.56
2018-09-21T03:39:28.531Z,75.65
2018-09-21T03:40:28.530Z,75.46
2018-09-21T03:41:28.522Z,75.31
2018-09-21T03:42:28.528Z,74.92
2018-09-21T03:43:28.544Z,75.37
2018-09-21T03:44:28.520Z,75.21
2018-09-21T03:45:28.516Z,74.92
2018-09-21T03:46:28.509Z,75.21
2018-09-21T03:47:28.509Z,75.40
2018-09-21T03:48:28.494Z,75.02
2018-09-21T03:49:28.494Z,75.21
2018-09-21T03:50:28.487Z,75.11
2018-09-21T03:51:28.482Z,74.63
2018-09-21T03:52:28.484Z,74.63
2018-09-21T03:53:28.474Z,75.02
2018-09-21T03:54:28.471Z,74.63
2018-09-21T03:55:28.466Z,74.82
2018-09-21T03:56:28.471Z,74.82
2018-09-21T03:57:28.469Z,74.44
2018-09-21T03:58:56.454Z,74.34
2018-09-21T03:59:28.454Z,74.73
2018-09-21T04:00:28.444Z,74.38
2018-09-21T04:01:28.449Z,74.29
2018-09-21T04:02:28.452Z,73.99
2018-09-21T04:03:28.434Z,74.19
2018-09-21T04:04:28.434Z,73.71
2018-09-21T04:05:28.435Z,73.99
2018-09-21T04:06:28.426Z,73.99
2018-09-21T04:07:28.429Z,73.51
2018-09-21T04:08:28.414Z,73.42
2018-09-21T04:09:28.411Z,73.22
2018-09-21T04:10:28.410Z,73.32
2018-09-21T04:11:28.404Z,73.61
2018-09-21T04:12:28.400Z,73.61
2018-09-21T04:13:28.395Z,73.61
2018-09-21T04:14:28.392Z,73.13
2018-09-21T04:15:28.384Z,72.84
2018-09-21T04:16:28.384Z,72.74
2018-09-21T04:17:28.376Z,72.65
2018-09-21T04:18:28.379Z,73.13
2018-09-21T04:19:28.375Z,72.65
2018-09-21T04:20:28.369Z,72.65
2018-09-21T04:21:28.364Z,72.94
2018-09-21T04:22:28.361Z,73.03
2018-09-21T04:23:28.363Z,72.74
2018-09-21T04:24:28.350Z,73.32
2018-09-21T04:25:28.347Z,73.13
2018-09-21T04:26:28.349Z,73.03
2018-09-21T04:27:28.342Z,73.13
2018-09-21T04:28:28.343Z,73.13
2018-09-21T04:29:28.330Z,73.32
2018-09-21T04:30:28.338Z,72.55
2018-09-21T04:31:28.327Z,72.65
2018-09-21T04:32:28.318Z,72.49
2018-09-21T04:33:28.314Z,72.17
2018-09-21T04:34:28.315Z,72.20
2018-09-21T04:35:28.311Z,72.30
2018-09-21T04:36:28.302Z,72.30
2018-09-21T04:37:28.304Z,72.59
2018-09-21T04:38:28.299Z,71.81
2018-09-21T04:39:28.291Z,71.91
2018-09-21T04:40:28.291Z,72.11
2018-09-21T04:41:28.287Z,71.91
2018-09-21T04:42:28.279Z,71.91
2018-09-21T04:43:28.279Z,72.01
2018-09-21T04:44:28.271Z,72.01
2018-09-21T04:45:28.272Z,71.43
2018-09-21T04:46:28.263Z,71.53
2018-09-21T04:47:28.264Z,71.04
2018-09-21T04:48:28.265Z,70.66
2018-09-21T04:49:28.264Z,70.66
2018-09-21T04:50:28.258Z,70.86
2018-09-21T04:51:28.243Z,70.21
2018-09-21T04:52:28.260Z,70.50
2018-09-21T04:53:28.237Z,69.73
2018-09-21T04:54:28.241Z,69.83
2018-09-21T04:55:28.235Z,69.83
2018-09-21T04:56:28.226Z,69.73
2018-09-21T04:57:28.227Z,69.45
2018-09-21T04:58:28.220Z,70.12
2018-09-21T04:59:28.220Z,70.12
2018-09-21T05:00:28.209Z,69.64
2018-09-21T05:01:28.209Z,69.54
2018-09-21T05:02:28.203Z,69.35
2018-09-21T05:03:28.197Z,69.15
2018-09-21T05:04:28.194Z,69.15
2018-09-21T05:05:28.193Z,69.54
2018-09-21T05:06:28.192Z,69.45
2018-09-21T05:07:28.183Z,69.83
2018-09-21T05:08:28.182Z,69.15
2018-09-21T05:09:28.200Z,68.87
2018-09-21T05:10:28.179Z,68.29
2018-09-21T05:11:28.175Z,68.38
2018-09-21T05:12:28.174Z,68.42
2018-09-21T05:13:28.170Z,68.61
2018-09-21T05:14:28.170Z,68.61
2018-09-21T05:15:28.156Z,68.42
2018-09-21T05:16:28.154Z,68.52
2018-09-21T05:17:28.154Z,68.04
2018-09-21T05:18:28.146Z,67.94
2018-09-21T05:19:28.146Z,68.04
2018-09-21T05:20:28.136Z,68.23
2018-09-21T05:21:28.138Z,68.04
2018-09-21T05:22:28.131Z,68.04
2018-09-21T05:23:28.131Z,67.74
2018-09-21T05:24:28.128Z,67.74
2018-09-21T05:25:28.120Z,68.04
2018-09-21T05:26:28.121Z,68.23
2018-09-21T05:27:28.132Z,68.13
2018-09-21T05:28:28.110Z,68.13
2018-09-21T05:29:28.105Z,68.32
2018-09-21T05:30:28.108Z,67.94
2018-09-21T05:31:28.107Z,67.46
2018-09-21T05:32:28.097Z,67.94
2018-09-21T05:33:28.097Z,67.78
2018-09-21T05:34:28.156Z,68.16
2018-09-21T05:35:28.085Z,68.07
2018-09-21T05:36:28.081Z,68.07
2018-09-21T05:37:28.077Z,67.68
2018-09-21T05:38:28.075Z,67.78
2018-09-21T05:39:28.091Z,67.49
2018-09-21T05:40:28.074Z,67.68
2018-09-21T05:41:28.063Z,67.49
2018-09-21T05:42:28.062Z,67.97
2018-09-21T05:43:28.055Z,67.68
2018-09-21T05:44:28.052Z,67.78
2018-09-21T05:45:28.051Z,67.68
2018-09-21T05:46:28.051Z,67.68
2018-09-21T05:47:28.042Z,67.78
2018-09-21T05:48:28.040Z,67.78
2018-09-21T05:49:28.035Z,67.78
2018-09-21T05:50:28.032Z,67.88
2018-09-21T05:51:28.036Z,67.58
2018-09-21T05:52:28.030Z,67.88
2018-09-21T05:53:28.025Z,67.52
2018-09-21T05:54:28.017Z,67.62
2018-09-21T05:55:28.014Z,67.10
2018-09-21T05:56:28.013Z,67.52
2018-09-21T05:57:28.008Z,67.49
2018-09-21T05:58:28.006Z,67.68
2018-09-21T05:59:28.011Z,67.71
2018-09-21T06:00:28.003Z,67.62
2018-09-21T06:01:27.998Z,67.81
2018-09-21T06:02:27.997Z,67.78
2018-09-21T06:03:27.996Z,67.33
2018-09-21T06:04:27.991Z,67.62
2018-09-21T06:05:27.985Z,67.71
2018-09-21T06:06:27.980Z,67.71
2018-09-21T06:07:27.975Z,67.62
2018-09-21T06:08:27.970Z,67.71
2018-09-21T06:09:27.968Z,68.10
2018-09-21T06:10:27.970Z,67.81
2018-09-21T06:11:27.965Z,68.01
2018-09-21T06:12:27.968Z,67.78
2018-09-21T06:13:27.975Z,68.29
2018-09-21T06:14:27.957Z,68.29
2018-09-21T06:15:27.951Z,68.10
2018-09-21T06:16:27.947Z,68.10
2018-09-21T06:17:27.942Z,68.39
2018-09-21T06:18:27.941Z,68.10
2018-09-21T06:19:28.006Z,68.10
2018-09-21T06:20:27.939Z,68.01
2018-09-21T06:21:27.941Z,67.81
2018-09-21T06:22:27.930Z,67.91
2018-09-21T06:23:27.932Z,68.01
2018-09-21T06:24:27.922Z,67.91
2018-09-21T06:25:27.934Z,67.81
2018-09-21T06:26:27.914Z,68.01
2018-09-21T06:27:27.916Z,68.10
2018-09-21T06:28:27.908Z,67.71
2018-09-21T06:29:27.909Z,68.10
2018-09-21T06:30:27.908Z,68.29
2018-09-21T06:31:27.903Z,68.01
2018-09-21T06:32:27.900Z,68.10
2018-09-21T06:33:27.897Z,68.10
2018-09-21T06:34:27.896Z,67.91
2018-09-21T06:35:27.894Z,68.04
2018-09-21T06:36:27.889Z,67.91
2018-09-21T06:37:27.885Z,67.91
2018-09-21T06:38:27.881Z,67.81
2018-09-21T06:39:27.882Z,67.91
2018-09-21T06:40:27.880Z,67.71
2018-09-21T06:41:27.874Z,67.46
2018-09-21T06:42:27.936Z,67.75
2018-09-21T06:43:27.872Z,67.62
2018-09-21T06:44:27.925Z,67.85
2018-09-21T06:45:27.861Z,67.81
2018-09-21T06:46:27.861Z,67.71
2018-09-21T06:47:27.854Z,67.71
2018-09-21T06:48:27.853Z,68.13
2018-09-21T06:49:27.851Z,67.94
2018-09-21T06:50:27.846Z,67.52
2018-09-21T06:51:27.844Z,67.75
2018-09-21T06:52:27.842Z,67.36
2018-09-21T06:53:27.843Z,67.55
2018-09-21T06:54:27.836Z,67.07
2018-09-21T06:55:27.837Z,67.27
2018-09-21T06:56:27.836Z,67.23
2018-09-21T06:57:27.829Z,67.17
2018-09-21T06:58:27.827Z,67.27
2018-09-21T06:59:27.829Z,67.55
2018-09-21T07:00:27.817Z,67.17
2018-09-21T07:01:27.944Z,66.78
2018-09-21T07:02:27.826Z,67.07
2018-09-21T07:03:27.811Z,66.78
2018-09-21T07:04:27.813Z,66.88
2018-09-21T07:05:28.559Z,66.69
2018-09-21T07:06:27.813Z,66.78
2018-09-21T07:07:27.800Z,66.30
2018-09-21T07:08:27.799Z,66.40
2018-09-21T07:09:27.799Z,66.11
2018-09-21T07:10:27.796Z,66.69
2018-09-21T07:11:27.789Z,66.78
2018-09-21T07:12:27.793Z,66.30
2018-09-21T07:13:27.784Z,66.11
2018-09-21T07:14:27.784Z,66.11
2018-09-21T07:15:27.784Z,66.30
2018-09-21T07:16:27.775Z,65.82
2018-09-21T07:17:27.779Z,65.72
2018-09-21T07:18:27.773Z,65.82
2018-09-21T07:19:27.768Z,65.34
2018-09-21T07:20:27.767Z,65.43
2018-09-21T07:21:27.765Z,65.14
2018-09-21T07:22:27.762Z,65.14
2018-09-21T07:23:27.763Z,65.59
2018-09-21T07:24:27.757Z,65.30
2018-09-21T07:25:27.758Z,65.53
2018-09-21T07:26:27.760Z,65.43
2018-09-21T07:27:27.750Z,65.53
2018-09-21T07:28:27.750Z,65.50
2018-09-21T07:29:27.745Z,65.34
2018-09-21T07:30:27.744Z,65.14
2018-09-21T07:31:27.746Z,65.05
2018-09-21T07:32:27.738Z,65.05
2018-09-21T07:33:27.733Z,64.53
2018-09-21T07:34:27.733Z,65.14
2018-09-21T07:35:27.727Z,64.47
2018-09-21T07:36:27.728Z,65.05
2018-09-21T07:37:27.790Z,65.43
2018-09-21T07:38:27.722Z,65.40
2018-09-21T07:39:27.720Z,66.40
2018-09-21T07:40:27.715Z,66.08
2018-09-21T07:41:27.709Z,66.30
2018-09-21T07:42:27.708Z,65.98
2018-09-21T07:43:27.710Z,66.46
2018-09-21T07:44:27.715Z,65.98
2018-09-21T07:45:27.703Z,65.11
2018-09-21T07:46:27.702Z,64.82
2018-09-21T07:47:27.696Z,65.24
2018-09-21T07:48:27.690Z,64.66
2018-09-21T07:49:27.688Z,64.76
2018-09-21T07:50:27.758Z,64.76
2018-09-21T07:51:27.688Z,64.18
2018-09-21T07:52:27.683Z,63.79
2018-09-21T07:53:27.687Z,63.79
2018-09-21T07:54:27.709Z,63.31
2018-09-21T07:55:27.674Z,63.76
2018-09-21T07:56:27.689Z,64.37
2018-09-21T07:57:27.668Z,64.56
2018-09-21T07:58:27.672Z,64.47
2018-09-21T07:59:29.589Z,63.89
2018-09-21T08:00:27.668Z,63.40
2018-09-21T08:01:27.665Z,63.70
2018-09-21T08:02:27.655Z,63.09
2018-09-21T08:03:27.653Z,62.60
2018-09-21T08:04:27.649Z,62.51
2018-09-21T08:05:27.649Z,63.18
2018-09-21T08:06:27.650Z,63.67
2018-09-21T08:07:27.649Z,63.95
2018-09-21T08:08:27.642Z,64.53
2018-09-21T08:09:27.636Z,63.76
2018-09-21T08:10:27.637Z,63.57
2018-09-21T08:11:27.638Z,63.57
2018-09-21T08:12:27.632Z,62.89
2018-09-21T08:13:27.634Z,63.18
2018-09-21T08:14:27.625Z,63.47
2018-09-21T08:15:27.623Z,63.57
2018-09-21T08:16:27.629Z,63.57
2018-09-21T08:17:27.620Z,62.99
2018-09-21T08:18:27.623Z,62.60
2018-09-21T08:19:27.643Z,62.51
2018-09-21T08:20:27.611Z,62.41
2018-09-21T08:21:27.612Z,62.31
2018-09-21T08:22:27.607Z,62.41
2018-09-21T08:23:27.600Z,62.41
2018-09-21T08:24:27.602Z,62.12
2018-09-21T08:25:27.594Z,62.02
2018-09-21T08:26:27.611Z,62.12
2018-09-21T08:27:27.591Z,62.15
2018-09-21T08:28:27.592Z,62.05
2018-09-21T08:29:27.592Z,62.05
2018-09-21T08:30:27.591Z,61.77
2018-09-21T08:31:27.597Z,61.19
2018-09-21T08:32:27.577Z,61.19
2018-09-21T08:33:27.577Z,61.19
2018-09-21T08:34:27.575Z,60.99
2018-09-21T08:35:27.572Z,61.28
2018-09-21T08:36:27.571Z,61.47
2018-09-21T08:37:27.564Z,61.67
2018-09-21T08:38:27.562Z,61.19
2018-09-21T08:39:27.557Z,61.57
2018-09-21T08:40:27.555Z,61.77
2018-09-21T08:41:27.556Z,62.15
2018-09-21T08:42:27.559Z,62.05
2018-09-21T08:43:27.551Z,61.47
2018-09-21T08:44:27.545Z,61.67
2018-09-21T08:45:27.604Z,61.67
2018-09-21T08:46:27.545Z,61.86
2018-09-21T08:47:27.541Z,62.05
2018-09-21T08:48:27.540Z,62.15
2018-09-21T08:49:27.540Z,62.05
2018-09-21T08:50:27.541Z,62.05
2018-09-21T08:51:27.571Z,62.73
2018-09-21T08:52:27.528Z,62.54
2018-09-21T08:53:27.526Z,62.15
2018-09-21T08:54:27.525Z,63.28
2018-09-21T08:55:27.524Z,63.31
2018-09-21T08:56:27.521Z,63.37
2018-09-21T08:57:27.521Z,63.85
2018-09-21T08:58:27.516Z,64.63
2018-09-21T08:59:27.511Z,65.20
2018-09-21T09:00:27.509Z,65.40
2018-09-21T09:01:27.507Z,65.78
2018-09-21T09:02:27.514Z,68.68
2018-09-21T09:03:27.601Z,72.06
2018-09-21T09:04:27.500Z,74.14
2018-09-21T09:05:27.504Z,76.55
2018-09-21T09:06:27.499Z,78.54
2018-09-21T09:07:27.494Z,79.60
2018-09-21T09:08:27.490Z,81.72
2018-09-21T09:09:27.485Z,82.16
2018-09-21T09:10:27.484Z,83.22
2018-09-21T09:11:27.485Z,84.91
2018-09-21T09:12:27.487Z,87.41
2018-09-21T09:13:27.482Z,90.26
2018-09-21T09:14:27.475Z,93.05
2018-09-21T09:15:27.470Z,93.38
2018-09-21T09:16:27.471Z,95.21
2018-09-21T09:17:27.464Z,96.42
2018-09-21T09:18:27.463Z,94.21
2018-09-21T09:19:27.458Z,92.76
2018-09-21T09:20:27.449Z,91.56
2018-09-21T09:21:27.447Z,95.17
2018-09-21T09:22:27.443Z,92.43
2018-09-21T09:23:27.439Z,90.85
2018-09-21T09:24:27.460Z,95.79
2018-09-21T09:25:27.434Z,88.31
2018-09-21T09:26:27.460Z,94.69
2018-09-21T09:27:27.422Z,90.67
2018-09-21T09:28:27.422Z,89.95
2018-09-21T09:29:27.419Z,89.86
2018-09-21T09:30:27.410Z,88.80
2018-09-21T09:31:27.403Z,89.57
2018-09-21T09:32:27.405Z,88.42
2018-09-21T09:33:27.401Z,89.62
2018-09-21T09:34:27.391Z,85.79
2018-09-21T09:35:27.390Z,84.74
2018-09-21T09:36:27.380Z,87.41
2018-09-21T09:37:27.374Z,86.27
2018-09-21T09:38:27.369Z,82.82
2018-09-21T09:39:27.367Z,83.30
2018-09-21T09:40:27.360Z,85.41
2018-09-21T09:41:27.355Z,88.76
2018-09-21T09:42:27.353Z,82.24
2018-09-21T09:43:27.394Z,92.21
2018-09-21T09:44:27.347Z,84.16
2018-09-21T09:45:27.335Z,79.18
2018-09-21T09:46:27.327Z,78.13
2018-09-21T09:47:27.321Z,76.79
2018-09-21T09:48:27.366Z,76.79
2018-09-21T09:49:27.324Z,76.69
2018-09-21T09:50:27.308Z,79.37
2018-09-21T09:51:27.303Z,78.42
2018-09-21T09:52:27.298Z,74.40
2018-09-21T09:53:27.288Z,78.03
2018-09-21T09:54:27.281Z,79.24
2018-09-21T09:55:27.288Z,77.75
2018-09-21T09:56:27.270Z,72.96
2018-09-21T09:57:27.267Z,73.72
2018-09-21T09:58:27.292Z,74.11
2018-09-21T09:59:27.258Z,74.40
2018-09-21T10:00:27.250Z,72.09
2018-09-21T10:01:27.245Z,68.55
2018-09-21T10:02:27.242Z,72.58
2018-09-21T10:03:27.294Z,67.98
2018-09-21T10:04:27.236Z,72.48
2018-09-21T10:05:27.219Z,69.03
2018-09-21T10:06:28.157Z,72.19
2018-09-21T10:07:27.217Z,73.63
2018-09-21T10:08:27.202Z,74.20
2018-09-21T10:09:27.197Z,80.81
2018-09-21T10:10:27.218Z,73.05
2018-09-21T10:11:27.187Z,75.16
2018-09-21T10:12:27.182Z,73.72
2018-09-21T10:13:27.173Z,75.93
2018-09-21T10:14:27.181Z,77.94
2018-09-21T10:15:27.162Z,75.73
2018-09-21T10:16:27.175Z,74.40
2018-09-21T10:17:27.152Z,75.54
2018-09-21T10:18:27.151Z,77.08
2018-09-21T10:19:27.141Z,75.16
2018-09-21T10:20:27.172Z,79.18
2018-09-21T10:21:27.128Z,74.30
2018-09-21T10:22:27.125Z,72.58
2018-09-21T10:23:27.117Z,78.89
2018-09-21T10:24:27.110Z,79.57
2018-09-21T10:25:27.105Z,75.07
2018-09-21T10:26:27.102Z,76.98
2018-09-21T10:27:27.186Z,75.83
2018-09-21T10:28:27.271Z,77.65
2018-09-21T10:29:27.091Z,79.85
2018-09-21T10:30:27.077Z,76.02
2018-09-21T10:31:27.069Z,79.08
2018-09-21T10:32:27.062Z,77.46
2018-09-21T10:33:27.143Z,79.47
2018-09-21T10:34:27.089Z,77.99
2018-09-21T10:35:27.126Z,78.42
2018-09-21T10:36:27.043Z,82.20
2018-09-21T10:37:27.039Z,82.20
2018-09-21T10:38:27.033Z,84.22
2018-09-21T10:39:27.028Z,80.19
2018-09-21T10:40:27.100Z,86.41
2018-09-21T10:41:27.017Z,82.59
2018-09-21T10:42:27.015Z,80.10
2018-09-21T10:43:27.005Z,83.26
2018-09-21T10:44:26.996Z,84.88
2018-09-21T10:45:26.993Z,80.29
2018-09-21T10:46:26.987Z,80.38
2018-09-21T10:47:26.986Z,84.41
2018-09-21T10:48:26.976Z,83.39
2018-09-21T10:49:26.973Z,85.75
2018-09-21T10:50:26.968Z,83.39
2018-09-21T10:51:26.960Z,83.11
2018-09-21T10:52:26.951Z,83.59
2018-09-21T10:53:26.949Z,84.16
2018-09-21T10:54:26.940Z,83.39
2018-09-21T10:55:26.960Z,85.31
2018-09-21T10:56:26.931Z,84.35
2018-09-21T10:57:26.924Z,82.43
2018-09-21T10:58:26.978Z,84.26
2018-09-21T10:59:26.932Z,85.02
2018-09-21T11:00:26.954Z,84.55
2018-09-21T11:01:26.901Z,83.68
2018-09-21T11:02:26.911Z,84.64
2018-09-21T11:03:26.894Z,83.30
2018-09-21T11:04:26.885Z,85.12
2018-09-21T11:05:26.883Z,86.65
2018-09-21T11:06:27.685Z,82.24
2018-09-21T11:07:26.868Z,84.06
2018-09-21T11:08:26.868Z,80.43
2018-09-21T11:09:26.861Z,82.73
2018-09-21T11:10:26.854Z,88.76
2018-09-21T11:11:26.855Z,82.92
2018-09-21T11:12:26.847Z,84.26
2018-09-21T11:13:26.843Z,86.08
2018-09-21T11:14:26.830Z,86.84
2018-09-21T11:15:26.843Z,86.08
2018-09-21T11:16:26.823Z,84.26
2018-09-21T11:17:26.813Z,82.53
2018-09-21T11:18:26.811Z,83.97
2018-09-21T11:19:26.805Z,81.86
2018-09-21T11:20:26.814Z,81.29
2018-09-21T11:21:26.791Z,82.82
2018-09-21T11:22:26.793Z,86.17
2018-09-21T11:23:26.786Z,83.87
2018-09-21T11:24:26.783Z,83.92
2018-09-21T11:25:26.772Z,85.02
2018-09-21T11:26:26.769Z,84.49
2018-09-21T11:27:26.759Z,82.48
2018-09-21T11:28:26.756Z,83.53
2018-09-21T11:29:26.764Z,86.31
2018-09-21T11:30:26.753Z,89.57
2018-09-21T11:31:26.745Z,88.03
2018-09-21T11:32:26.743Z,88.32
2018-09-21T11:33:26.734Z,89.66
2018-09-21T11:34:26.727Z,90.81
2018-09-21T11:35:26.722Z,89.57
2018-09-21T11:36:26.718Z,89.47
2018-09-21T11:37:26.714Z,86.50
2018-09-21T11:38:26.712Z,87.84
2018-09-21T11:39:26.704Z,87.46
2018-09-21T11:40:26.697Z,88.03
2018-09-21T11:41:26.693Z,88.70
2018-09-21T11:42:26.686Z,88.23
2018-09-21T11:43:26.681Z,90.91
2018-09-21T11:44:26.681Z,90.43
2018-09-21T11:45:26.673Z,90.81
2018-09-21T11:46:26.673Z,88.42
2018-09-21T11:47:26.711Z,89.61
2018-09-21T11:48:26.662Z,89.51
2018-09-21T11:49:26.653Z,88.37
2018-09-21T11:50:26.652Z,90.86
2018-09-21T11:51:26.645Z,90.86
2018-09-21T11:52:26.636Z,90.19
2018-09-21T11:53:26.635Z,91.05
2018-09-21T11:54:26.628Z,91.14
2018-09-21T11:55:26.628Z,91.24
2018-09-21T11:56:26.623Z,90.76
2018-09-21T11:57:26.617Z,92.87
2018-09-21T11:58:26.616Z,91.82
2018-09-21T11:59:26.609Z,91.82
2018-09-21T12:00:26.602Z,92.10
2018-09-21T12:01:26.601Z,91.63
2018-09-21T12:02:26.590Z,92.30
2018-09-21T12:03:26.593Z,93.35
2018-09-21T12:04:26.585Z,90.86
2018-09-21T12:05:26.581Z,92.49
2018-09-21T12:06:26.578Z,91.91
2018-09-21T12:07:26.570Z,92.77
2018-09-21T12:08:26.565Z,92.49
2018-09-21T12:09:26.558Z,91.05
2018-09-21T12:10:26.588Z,91.49
2018-09-21T12:11:26.553Z,91.91
2018-09-21T12:12:26.544Z,91.82
2018-09-21T12:13:26.544Z,92.97
2018-09-21T12:14:26.539Z,92.10
2018-09-21T12:15:26.529Z,90.57
2018-09-21T12:16:26.526Z,92.39
2018-09-21T12:17:26.522Z,91.96
2018-09-21T12:18:26.518Z,92.44
2018-09-21T12:19:26.512Z,92.15
2018-09-21T12:20:26.513Z,91.43
2018-09-21T12:21:26.504Z,92.58
2018-09-21T12:22:26.499Z,92.58
2018-09-21T12:23:26.493Z,91.72
2018-09-21T12:24:26.490Z,91.91
2018-09-21T12:25:26.484Z,91.14
2018-09-21T12:26:26.484Z,91.91
2018-09-21T12:27:26.476Z,91.72
2018-09-21T12:28:26.470Z,91.14
2018-09-21T12:29:26.463Z,91.63
2018-09-21T12:30:26.479Z,91.34
2018-09-21T12:31:26.454Z,90.86
2018-09-21T12:32:26.453Z,92.30
2018-09-21T12:33:26.449Z,89.90
2018-09-21T12:34:26.441Z,90.47
2018-09-21T12:35:26.441Z,90.19
2018-09-21T12:36:26.520Z,92.10
2018-09-21T12:37:26.426Z,90.23
2018-09-21T12:38:26.433Z,90.95
2018-09-21T12:39:26.418Z,90.19
2018-09-21T12:40:26.413Z,89.13
2018-09-21T12:41:26.409Z,89.90
2018-09-21T12:42:26.408Z,88.27
2018-09-21T12:43:26.393Z,89.75
2018-09-21T12:44:26.449Z,88.02
2018-09-21T12:45:26.399Z,88.02
2018-09-21T12:46:26.385Z,88.60
2018-09-21T12:47:26.383Z,85.97
2018-09-21T12:48:26.378Z,85.11
2018-09-21T12:49:26.371Z,83.81
2018-09-21T12:50:26.429Z,84.91
2018-09-21T12:51:26.362Z,85.49
2018-09-21T12:52:26.358Z,85.21